createdAt,value
2019-02-08T00:00:34.683Z,1009.72
2019-02-08T00:01:34.636Z,1009.76
2019-02-08T00:02:34.612Z,1009.75
2019-02-08T00:03:34.562Z,1009.75
2019-02-08T00:04:34.539Z,1009.75
2019-02-08T00:05:34.531Z,1009.78
2019-02-08T00:06:34.462Z,1009.77
2019-02-08T00:07:34.431Z,1009.79
2019-02-08T00:08:34.389Z,1009.80
2019-02-08T00:09:34.350Z,1009.80
2019-02-08T00:10:34.343Z,1009.83
2019-02-08T00:11:34.323Z,1009.86
2019-02-08T00:12:34.470Z,1009.86
2019-02-08T00:13:34.219Z,1009.88
2019-02-08T00:14:35.985Z,1009.89
2019-02-08T00:15:34.171Z,1009.85
2019-02-08T00:16:34.115Z,1009.87
2019-02-08T00:17:35.067Z,1009.81
2019-02-08T00:18:34.084Z,1009.87
2019-02-08T00:19:34.003Z,1009.86
2019-02-08T00:20:34.180Z,1009.87
2019-02-08T00:21:33.930Z,1009.90
2019-02-08T00:22:33.891Z,1009.95
2019-02-08T00:23:34.469Z,1009.96
2019-02-08T00:24:33.834Z,1009.98
2019-02-08T00:25:33.813Z,1009.95
2019-02-08T00:26:33.758Z,1009.95
2019-02-08T00:27:33.713Z,1009.95
2019-02-08T00:28:33.682Z,1009.96
2019-02-08T00:29:33.656Z,1009.93
2019-02-08T00:30:34.605Z,1009.92
2019-02-08T00:31:34.561Z,1009.93
2019-02-08T00:32:33.536Z,1009.94
2019-02-08T00:33:33.498Z,1009.92
2019-02-08T00:34:33.467Z,1009.95
2019-02-08T00:35:33.460Z,1009.92
2019-02-08T00:36:33.484Z,1009.96
2019-02-08T00:37:33.523Z,1009.95
2019-02-08T00:38:33.324Z,1009.94
2019-02-08T00:39:33.290Z,1009.94
2019-02-08T00:40:33.276Z,1009.95
2019-02-08T00:41:36.470Z,1009.93
2019-02-08T00:42:33.972Z,1009.94
2019-02-08T00:43:33.147Z,1009.97
2019-02-08T00:44:33.111Z,1009.98
2019-02-08T00:45:33.101Z,1010.01
2019-02-08T00:46:33.046Z,1009.92
2019-02-08T00:47:33.008Z,1010.01
2019-02-08T00:48:32.995Z,1010.04
2019-02-08T00:49:32.930Z,1010.00
2019-02-08T00:50:32.923Z,1010.01
2019-02-08T00:51:32.864Z,1010.00
2019-02-08T00:52:33.481Z,1010.06
2019-02-08T00:53:33.672Z,1010.01
2019-02-08T00:54:32.755Z,1010.05
2019-02-08T00:55:32.746Z,1010.07
2019-02-08T00:56:33.471Z,1010.05
2019-02-08T00:57:32.654Z,1010.09
2019-02-08T00:58:32.620Z,1010.09
2019-02-08T00:59:32.579Z,1010.15
2019-02-08T01:00:32.623Z,1010.12
2019-02-08T01:01:32.504Z,1010.08
2019-02-08T01:02:32.469Z,1010.11
2019-02-08T01:03:32.435Z,1010.15
2019-02-08T01:04:32.399Z,1010.18
2019-02-08T01:05:32.388Z,1010.11
2019-02-08T01:06:32.330Z,1010.15
2019-02-08T01:07:32.319Z,1010.11
2019-02-08T01:08:32.259Z,1010.15
2019-02-08T01:09:32.220Z,1010.15
2019-02-08T01:10:32.232Z,1010.15
2019-02-08T01:11:32.181Z,1010.18
2019-02-08T01:12:32.120Z,1010.18
2019-02-08T01:13:32.082Z,1010.19
2019-02-08T01:14:32.040Z,1010.20
2019-02-08T01:15:32.007Z,1010.18
2019-02-08T01:16:31.996Z,1010.22
2019-02-08T01:17:31.938Z,1010.20
2019-02-08T01:18:31.902Z,1010.19
2019-02-08T01:19:31.873Z,1010.21
2019-02-08T01:20:31.830Z,1010.23
2019-02-08T01:21:31.819Z,1010.21
2019-02-08T01:22:31.756Z,1010.18
2019-02-08T01:23:31.722Z,1010.20
2019-02-08T01:24:31.743Z,1010.26
2019-02-08T01:25:31.650Z,1010.25
2019-02-08T01:26:31.641Z,1010.28
2019-02-08T01:27:32.520Z,1010.27
2019-02-08T01:28:31.551Z,1010.29
2019-02-08T01:29:31.513Z,1010.25
2019-02-08T01:30:31.470Z,1010.30
2019-02-08T01:31:31.467Z,1010.29
2019-02-08T01:32:31.400Z,1010.28
2019-02-08T01:33:31.368Z,1010.27
2019-02-08T01:34:31.327Z,1010.29
2019-02-08T01:35:31.298Z,1010.27
2019-02-08T01:36:31.279Z,1010.28
2019-02-08T01:37:31.333Z,1010.22
2019-02-08T01:38:31.195Z,1010.28
2019-02-08T01:39:31.151Z,1010.26
2019-02-08T01:40:31.115Z,1010.26
2019-02-08T01:41:31.099Z,1010.28
2019-02-08T01:42:31.044Z,1010.29
2019-02-08T01:43:31.040Z,1010.27
2019-02-08T01:44:30.977Z,1010.23
2019-02-08T01:45:30.936Z,1010.26
2019-02-08T01:46:30.926Z,1010.26
2019-02-08T01:47:30.867Z,1010.24
2019-02-08T01:48:30.839Z,1010.29
2019-02-08T01:49:30.792Z,1010.28
2019-02-08T01:50:30.755Z,1010.32
2019-02-08T01:51:30.748Z,1010.33
2019-02-08T01:52:31.588Z,1010.34
2019-02-08T01:53:30.652Z,1010.40
2019-02-08T01:54:30.620Z,1010.41
2019-02-08T01:55:30.587Z,1010.43
2019-02-08T01:56:30.572Z,1010.41
2019-02-08T01:57:30.504Z,1010.44
2019-02-08T01:58:30.471Z,1010.42
2019-02-08T01:59:30.435Z,1010.42
2019-02-08T02:00:30.403Z,1010.46
2019-02-08T02:01:30.977Z,1010.38
2019-02-08T02:02:30.327Z,1010.42
2019-02-08T02:03:30.294Z,1010.43
2019-02-08T02:04:30.265Z,1010.44
2019-02-08T02:05:30.224Z,1010.45
2019-02-08T02:06:30.212Z,1010.50
2019-02-08T02:07:30.151Z,1010.49
2019-02-08T02:08:30.118Z,1010.47
2019-02-08T02:09:30.083Z,1010.48
2019-02-08T02:10:30.047Z,1010.47
2019-02-08T02:11:30.031Z,1010.51
2019-02-08T02:12:29.974Z,1010.50
2019-02-08T02:13:29.938Z,1010.52
2019-02-08T02:14:29.903Z,1010.52
2019-02-08T02:15:29.866Z,1010.53
2019-02-08T02:16:29.910Z,1010.55
2019-02-08T02:17:29.803Z,1010.58
2019-02-08T02:18:29.762Z,1010.60
2019-02-08T02:19:29.728Z,1010.59
2019-02-08T02:20:29.690Z,1010.55
2019-02-08T02:21:29.677Z,1010.58
2019-02-08T02:22:29.617Z,1010.61
2019-02-08T02:23:29.585Z,1010.57
2019-02-08T02:24:29.551Z,1010.59
2019-02-08T02:25:29.508Z,1010.66
2019-02-08T02:26:29.511Z,1010.55
2019-02-08T02:27:30.070Z,1010.62
2019-02-08T02:28:29.409Z,1010.63
2019-02-08T02:29:29.373Z,1010.65
2019-02-08T02:30:30.077Z,1010.62
2019-02-08T02:31:29.297Z,1010.65
2019-02-08T02:32:29.289Z,1010.68
2019-02-08T02:33:30.074Z,1010.63
2019-02-08T02:34:29.985Z,1010.63
2019-02-08T02:35:29.156Z,1010.56
2019-02-08T02:36:29.128Z,1010.62
2019-02-08T02:37:29.112Z,1010.62
2019-02-08T02:38:29.059Z,1010.52
2019-02-08T02:39:29.024Z,1010.59
2019-02-08T02:40:28.984Z,1010.64
2019-02-08T02:41:28.956Z,1010.61
2019-02-08T02:42:28.949Z,1010.65
2019-02-08T02:43:28.876Z,1010.62
2019-02-08T02:44:29.480Z,1010.55
2019-02-08T02:45:28.827Z,1010.60
2019-02-08T02:46:28.767Z,1010.58
2019-02-08T02:47:28.759Z,1010.61
2019-02-08T02:48:28.704Z,1010.61
2019-02-08T02:49:28.666Z,1010.58
2019-02-08T02:50:28.630Z,1010.60
2019-02-08T02:51:28.595Z,1010.60
2019-02-08T02:52:28.583Z,1010.56
2019-02-08T02:53:28.523Z,1010.62
2019-02-08T02:54:28.489Z,1010.63
2019-02-08T02:55:28.455Z,1010.63
2019-02-08T02:56:28.419Z,1010.62
2019-02-08T02:57:28.412Z,1010.63
2019-02-08T02:58:28.351Z,1010.61
2019-02-08T02:59:28.315Z,1010.60
2019-02-08T03:00:28.278Z,1010.58
2019-02-08T03:01:28.244Z,1010.56
2019-02-08T03:02:28.237Z,1010.53
2019-02-08T03:03:28.172Z,1010.57
2019-02-08T03:04:33.988Z,1010.59
2019-02-08T03:05:28.102Z,1010.58
2019-02-08T03:06:28.068Z,1010.63
2019-02-08T03:07:28.063Z,1010.60
2019-02-08T03:08:28.028Z,1010.58
2019-02-08T03:09:27.962Z,1010.60
2019-02-08T03:10:27.925Z,1010.58
2019-02-08T03:11:27.892Z,1010.57
2019-02-08T03:12:27.885Z,1010.51
2019-02-08T03:13:27.824Z,1010.53
2019-02-08T03:14:27.786Z,1010.54
2019-02-08T03:15:27.787Z,1010.52
2019-02-08T03:16:27.715Z,1010.52
2019-02-08T03:17:27.711Z,1010.52
2019-02-08T03:18:27.648Z,1010.51
2019-02-08T03:19:27.614Z,1010.60
2019-02-08T03:20:27.579Z,1010.55
2019-02-08T03:21:27.542Z,1010.53
2019-02-08T03:22:28.085Z,1010.54
2019-02-08T03:23:27.488Z,1010.54
2019-02-08T03:24:27.436Z,1010.58
2019-02-08T03:25:27.400Z,1010.60
2019-02-08T03:26:27.364Z,1010.57
2019-02-08T03:27:27.362Z,1010.55
2019-02-08T03:28:27.293Z,1010.60
2019-02-08T03:29:27.258Z,1010.59
2019-02-08T03:30:27.229Z,1010.59
2019-02-08T03:31:27.203Z,1010.59
2019-02-08T03:32:27.192Z,1010.61
2019-02-08T03:33:27.117Z,1010.60
2019-02-08T03:34:27.082Z,1010.66
2019-02-08T03:35:27.051Z,1010.63
2019-02-08T03:36:27.008Z,1010.63
2019-02-08T03:37:26.996Z,1010.61
2019-02-08T03:38:26.946Z,1010.58
2019-02-08T03:39:26.909Z,1010.63
2019-02-08T03:40:26.879Z,1010.63
2019-02-08T03:41:27.582Z,1010.64
2019-02-08T03:42:26.840Z,1010.64
2019-02-08T03:43:26.762Z,1010.63
2019-02-08T03:44:26.730Z,1010.66
2019-02-08T03:45:26.688Z,1010.68
2019-02-08T03:46:26.660Z,1010.67
2019-02-08T03:47:26.623Z,1010.70
2019-02-08T03:48:26.607Z,1010.67
2019-02-08T03:49:26.547Z,1010.64
2019-02-08T03:50:26.515Z,1010.68
2019-02-08T03:51:26.523Z,1010.68
2019-02-08T03:52:26.445Z,1010.66
2019-02-08T03:53:26.429Z,1010.68
2019-02-08T03:54:26.374Z,1010.70
2019-02-08T03:55:26.334Z,1010.73
2019-02-08T03:56:26.301Z,1010.71
2019-02-08T03:57:26.268Z,1010.75
2019-02-08T03:58:26.251Z,1010.72
2019-02-08T03:59:26.193Z,1010.77
2019-02-08T04:00:26.156Z,1010.79
2019-02-08T04:01:26.271Z,1010.78
2019-02-08T04:02:26.088Z,1010.77
2019-02-08T04:03:26.072Z,1010.80
2019-02-08T04:04:26.017Z,1010.78
2019-02-08T04:05:25.989Z,1010.82
2019-02-08T04:06:25.949Z,1010.83
2019-02-08T04:07:25.906Z,1010.83
2019-02-08T04:08:26.161Z,1010.88
2019-02-08T04:09:25.840Z,1010.86
2019-02-08T04:10:25.809Z,1010.86
2019-02-08T04:11:25.766Z,1010.85
2019-02-08T04:12:25.730Z,1010.88
2019-02-08T04:13:25.735Z,1010.86
2019-02-08T04:14:25.658Z,1010.92
2019-02-08T04:15:25.655Z,1010.89
2019-02-08T04:16:25.588Z,1010.93
2019-02-08T04:17:25.552Z,1010.95
2019-02-08T04:18:25.548Z,1010.95
2019-02-08T04:19:25.481Z,1010.92
2019-02-08T04:20:25.447Z,1010.89
2019-02-08T04:21:25.408Z,1010.94
2019-02-08T04:22:25.373Z,1010.97
2019-02-08T04:23:25.385Z,1010.91
2019-02-08T04:24:29.936Z,1011.00
2019-02-08T04:25:26.086Z,1011.06
2019-02-08T04:26:25.235Z,1011.04
2019-02-08T04:27:25.202Z,1011.08
2019-02-08T04:28:25.190Z,1011.02
2019-02-08T04:29:25.143Z,1011.02
2019-02-08T04:30:25.087Z,1011.03
2019-02-08T04:31:25.055Z,1011.03
2019-02-08T04:32:25.015Z,1011.03
2019-02-08T04:33:25.009Z,1011.04
2019-02-08T04:34:24.945Z,1011.06
2019-02-08T04:35:24.913Z,1011.05
2019-02-08T04:36:24.879Z,1011.09
2019-02-08T04:37:24.839Z,1011.08
2019-02-08T04:38:24.825Z,1011.03
2019-02-08T04:39:24.771Z,1011.12
2019-02-08T04:40:24.735Z,1011.09
2019-02-08T04:41:24.695Z,1011.06
2019-02-08T04:42:24.660Z,1011.06
2019-02-08T04:43:24.655Z,1011.09
2019-02-08T04:44:24.594Z,1011.07
2019-02-08T04:45:24.558Z,1011.09
2019-02-08T04:46:24.516Z,1011.11
2019-02-08T04:47:24.484Z,1011.11
2019-02-08T04:48:24.478Z,1011.09
2019-02-08T04:49:24.423Z,1011.08
2019-02-08T04:50:25.091Z,1011.06
2019-02-08T04:51:25.708Z,1011.04
2019-02-08T04:52:24.307Z,1011.04
2019-02-08T04:53:24.997Z,1011.06
2019-02-08T04:54:24.233Z,1011.06
2019-02-08T04:55:24.202Z,1011.06
2019-02-08T04:56:24.164Z,1011.11
2019-02-08T04:57:24.126Z,1011.09
2019-02-08T04:58:24.221Z,1011.11
2019-02-08T04:59:24.050Z,1011.13
2019-02-08T05:00:24.019Z,1011.13
2019-02-08T05:01:23.995Z,1011.18
2019-02-08T05:02:23.946Z,1011.16
2019-02-08T05:03:23.911Z,1011.14
2019-02-08T05:04:23.912Z,1011.18
2019-02-08T05:05:23.881Z,1011.09
2019-02-08T05:06:23.806Z,1011.13
2019-02-08T05:07:23.765Z,1011.13
2019-02-08T05:08:23.731Z,1011.17
2019-02-08T05:09:23.719Z,1011.11
2019-02-08T05:10:23.656Z,1011.21
2019-02-08T05:11:23.631Z,1011.18
2019-02-08T05:12:23.588Z,1011.18
2019-02-08T05:13:23.557Z,1011.18
2019-02-08T05:14:23.557Z,1011.17
2019-02-08T05:15:23.481Z,1011.16
2019-02-08T05:16:23.454Z,1011.16
2019-02-08T05:17:23.424Z,1011.17
2019-02-08T05:18:23.374Z,1011.15
2019-02-08T05:19:23.366Z,1011.17
2019-02-08T05:20:23.301Z,1011.18
2019-02-08T05:21:23.267Z,1011.19
2019-02-08T05:22:23.229Z,1011.18
2019-02-08T05:23:23.196Z,1011.20
2019-02-08T05:24:23.183Z,1011.20
2019-02-08T05:25:23.131Z,1011.19
2019-02-08T05:26:23.093Z,1011.20
2019-02-08T05:27:23.051Z,1011.20
2019-02-08T05:28:23.018Z,1011.14
2019-02-08T05:29:23.006Z,1011.19
2019-02-08T05:30:22.942Z,1011.21
2019-02-08T05:31:25.492Z,1011.17
2019-02-08T05:32:23.000Z,1011.22
2019-02-08T05:33:22.836Z,1011.21
2019-02-08T05:34:22.822Z,1011.16
2019-02-08T05:35:22.766Z,1011.18
2019-02-08T05:36:23.506Z,1011.20
2019-02-08T05:37:23.493Z,1011.19
2019-02-08T05:38:22.659Z,1011.15
2019-02-08T05:39:22.648Z,1011.15
2019-02-08T05:40:22.589Z,1011.15
2019-02-08T05:41:22.551Z,1011.15
2019-02-08T05:42:22.518Z,1011.14
2019-02-08T05:43:22.525Z,1011.14
2019-02-08T05:44:22.632Z,1011.13
2019-02-08T05:45:22.419Z,1011.12
2019-02-08T05:46:22.380Z,1011.07
2019-02-08T05:47:22.338Z,1011.10
2019-02-08T05:48:22.330Z,1011.10
2019-02-08T05:49:22.286Z,1011.11
2019-02-08T05:50:22.237Z,1011.11
2019-02-08T05:51:22.194Z,1011.19
2019-02-08T05:52:22.172Z,1011.13
2019-02-08T05:53:22.123Z,1011.15
2019-02-08T05:54:22.114Z,1011.17
2019-02-08T05:55:22.132Z,1011.11
2019-02-08T05:56:22.018Z,1011.18
2019-02-08T05:57:21.978Z,1011.16
2019-02-08T05:58:21.988Z,1011.21
2019-02-08T05:59:21.938Z,1011.18
2019-02-08T06:00:21.880Z,1011.23
2019-02-08T06:01:21.837Z,1011.20
2019-02-08T06:02:21.798Z,1011.18
2019-02-08T06:03:21.767Z,1011.19
2019-02-08T06:04:21.758Z,1011.24
2019-02-08T06:05:22.591Z,1011.24
2019-02-08T06:06:21.659Z,1011.24
2019-02-08T06:07:21.635Z,1011.25
2019-02-08T06:08:21.588Z,1011.24
2019-02-08T06:09:21.578Z,1011.23
2019-02-08T06:10:21.522Z,1011.26
2019-02-08T06:11:21.482Z,1011.25
2019-02-08T06:12:21.447Z,1011.27
2019-02-08T06:13:21.425Z,1011.25
2019-02-08T06:14:21.415Z,1011.30
2019-02-08T06:15:21.338Z,1011.26
2019-02-08T06:16:21.311Z,1011.29
2019-02-08T06:17:21.265Z,1011.28
2019-02-08T06:18:22.090Z,1011.26
2019-02-08T06:19:21.198Z,1011.25
2019-02-08T06:20:21.195Z,1011.24
2019-02-08T06:21:21.134Z,1011.23
2019-02-08T06:22:21.092Z,1011.22
2019-02-08T06:23:21.062Z,1011.26
2019-02-08T06:24:21.015Z,1011.27
2019-02-08T06:25:21.134Z,1011.29
2019-02-08T06:26:20.953Z,1011.23
2019-02-08T06:27:20.914Z,1011.27
2019-02-08T06:28:20.871Z,1011.25
2019-02-08T06:29:20.837Z,1011.20
2019-02-08T06:30:20.829Z,1011.23
2019-02-08T06:31:20.799Z,1011.24
2019-02-08T06:32:20.751Z,1011.19
2019-02-08T06:33:20.703Z,1011.22
2019-02-08T06:34:20.667Z,1011.28
2019-02-08T06:35:20.656Z,1011.29
2019-02-08T06:36:20.592Z,1011.30
2019-02-08T06:37:20.552Z,1011.31
2019-02-08T06:38:20.519Z,1011.33
2019-02-08T06:39:20.479Z,1011.31
2019-02-08T06:40:20.479Z,1011.42
2019-02-08T06:41:23.002Z,1011.36
2019-02-08T06:42:20.376Z,1011.39
2019-02-08T06:43:20.335Z,1011.43
2019-02-08T06:44:20.304Z,1011.44
2019-02-08T06:45:20.292Z,1011.48
2019-02-08T06:46:20.244Z,1011.48
2019-02-08T06:47:20.196Z,1011.54
2019-02-08T06:48:20.157Z,1011.55
2019-02-08T06:49:20.127Z,1011.53
2019-02-08T06:50:20.112Z,1011.54
2019-02-08T06:51:20.049Z,1011.55
2019-02-08T06:52:20.018Z,1011.50
2019-02-08T06:53:19.977Z,1011.62
2019-02-08T06:54:19.947Z,1011.60
2019-02-08T06:55:19.935Z,1011.64
2019-02-08T06:56:19.877Z,1011.62
2019-02-08T06:57:19.840Z,1011.69
2019-02-08T06:58:19.799Z,1011.68
2019-02-08T06:59:19.774Z,1011.76
2019-02-08T07:00:19.756Z,1011.70
2019-02-08T07:01:19.697Z,1011.70
2019-02-08T07:02:20.598Z,1011.73
2019-02-08T07:03:19.628Z,1011.69
2019-02-08T07:04:19.589Z,1011.69
2019-02-08T07:05:19.592Z,1011.71
2019-02-08T07:06:19.518Z,1011.65
2019-02-08T07:07:19.482Z,1011.70
2019-02-08T07:08:19.479Z,1011.74
2019-02-08T07:09:19.412Z,1011.73
2019-02-08T07:10:19.383Z,1011.75
2019-02-08T07:11:20.097Z,1011.81
2019-02-08T07:12:20.000Z,1011.72
2019-02-08T07:13:19.297Z,1011.69
2019-02-08T07:14:19.234Z,1011.76
2019-02-08T07:15:19.197Z,1011.74
2019-02-08T07:16:19.188Z,1011.67
2019-02-08T07:17:19.133Z,1011.74
2019-02-08T07:18:19.092Z,1011.71
2019-02-08T07:19:19.058Z,1011.71
2019-02-08T07:20:19.023Z,1011.72
2019-02-08T07:21:19.029Z,1011.70
2019-02-08T07:22:18.951Z,1011.70
2019-02-08T07:23:18.918Z,1011.68
2019-02-08T07:24:18.878Z,1011.70
2019-02-08T07:25:18.990Z,1011.69
2019-02-08T07:26:18.828Z,1011.66
2019-02-08T07:27:18.797Z,1011.69
2019-02-08T07:28:18.745Z,1011.71
2019-02-08T07:29:18.705Z,1011.73
2019-02-08T07:30:18.684Z,1011.76
2019-02-08T07:31:18.649Z,1011.78
2019-02-08T07:32:18.623Z,1011.78
2019-02-08T07:33:18.807Z,1011.77
2019-02-08T07:34:18.530Z,1011.77
2019-02-08T07:35:19.104Z,1011.83
2019-02-08T07:36:18.459Z,1011.79
2019-02-08T07:37:18.447Z,1011.86
2019-02-08T07:38:22.005Z,1011.83
2019-02-08T07:39:18.357Z,1011.86
2019-02-08T07:40:19.109Z,1011.84
2019-02-08T07:41:18.309Z,1011.85
2019-02-08T07:42:18.281Z,1011.85
2019-02-08T07:43:18.311Z,1011.88
2019-02-08T07:44:18.182Z,1011.87
2019-02-08T07:45:18.142Z,1011.84
2019-02-08T07:46:18.113Z,1011.92
2019-02-08T07:47:18.079Z,1011.94
2019-02-08T07:48:18.062Z,1011.97
2019-02-08T07:49:18.009Z,1011.91
2019-02-08T07:50:17.981Z,1011.92
2019-02-08T07:51:17.931Z,1011.90
2019-02-08T07:52:17.898Z,1011.86
2019-02-08T07:53:17.895Z,1011.90
2019-02-08T07:54:17.848Z,1011.93
2019-02-08T07:55:17.796Z,1011.89
2019-02-08T07:56:17.878Z,1011.85
2019-02-08T07:57:17.727Z,1011.82
2019-02-08T07:58:17.715Z,1011.83
2019-02-08T07:59:17.713Z,1011.88
2019-02-08T08:00:17.642Z,1011.86
2019-02-08T08:01:17.591Z,1011.92
2019-02-08T08:02:18.112Z,1011.89
2019-02-08T08:03:17.555Z,1011.91
2019-02-08T08:04:17.486Z,1011.90
2019-02-08T08:05:17.448Z,1011.93
2019-02-08T08:06:17.421Z,1011.85
2019-02-08T08:07:17.384Z,1011.89
2019-02-08T08:08:17.376Z,1011.90
2019-02-08T08:09:17.408Z,1011.89
2019-02-08T08:10:17.360Z,1011.93
2019-02-08T08:11:17.279Z,1011.93
2019-02-08T08:12:17.212Z,1011.96
2019-02-08T08:13:17.174Z,1011.94
2019-02-08T08:14:17.169Z,1011.95
2019-02-08T08:15:17.118Z,1011.95
2019-02-08T08:16:17.075Z,1011.95
2019-02-08T08:17:17.042Z,1011.97
2019-02-08T08:18:17.005Z,1012.00
2019-02-08T08:20:16.936Z,1012.01
2019-02-08T08:21:16.900Z,1012.03
2019-02-08T08:22:16.867Z,1012.02
2019-02-08T08:23:16.834Z,1012.02
2019-02-08T08:24:16.828Z,1012.02
2019-02-08T08:25:16.777Z,1012.06
2019-02-08T08:26:16.732Z,1012.01
2019-02-08T08:27:16.699Z,1012.07
2019-02-08T08:28:16.662Z,1012.05
2019-02-08T08:29:16.652Z,1012.10
2019-02-08T08:30:16.600Z,1012.01
2019-02-08T08:31:16.582Z,1012.04
2019-02-08T08:32:16.529Z,1012.03
2019-02-08T08:33:16.491Z,1012.07
2019-02-08T08:34:16.458Z,1011.99
2019-02-08T08:35:16.464Z,1012.05
2019-02-08T08:36:16.388Z,1012.08
2019-02-08T08:37:16.357Z,1012.07
2019-02-08T08:38:16.323Z,1012.06
2019-02-08T08:39:16.288Z,1012.02
2019-02-08T08:40:16.284Z,1012.06
2019-02-08T08:41:16.224Z,1012.11
2019-02-08T08:42:16.191Z,1012.10
2019-02-08T08:43:16.241Z,1012.10
2019-02-08T08:44:16.123Z,1012.07
2019-02-08T08:45:16.127Z,1012.02
2019-02-08T08:46:16.065Z,1012.05
2019-02-08T08:47:16.017Z,1012.04
2019-02-08T08:48:15.983Z,1012.07
2019-02-08T08:49:16.016Z,1012.06
2019-02-08T08:50:16.061Z,1012.06
2019-02-08T08:51:15.907Z,1012.04
2019-02-08T08:52:15.851Z,1012.08
2019-02-08T08:53:15.817Z,1012.08
2019-02-08T08:54:15.787Z,1012.06
2019-02-08T08:55:15.878Z,1012.04
2019-02-08T08:56:15.739Z,1012.06
2019-02-08T08:57:15.682Z,1012.10
2019-02-08T08:58:15.717Z,1012.08
2019-02-08T08:59:15.634Z,1012.09
2019-02-08T09:00:15.584Z,1012.07
2019-02-08T09:01:15.578Z,1012.09
2019-02-08T09:02:15.517Z,1012.04
2019-02-08T09:03:16.018Z,1012.03
2019-02-08T09:04:15.446Z,1012.04
2019-02-08T09:05:15.415Z,1012.01
2019-02-08T09:06:16.105Z,1012.07
2019-02-08T09:07:16.587Z,1012.02
2019-02-08T09:08:15.314Z,1011.93
2019-02-08T09:09:15.279Z,1011.97
2019-02-08T09:10:15.248Z,1011.98
2019-02-08T09:11:15.211Z,1011.95
2019-02-08T09:12:15.214Z,1011.97
2019-02-08T09:13:15.241Z,1011.97
2019-02-08T09:14:15.116Z,1011.97
2019-02-08T09:15:15.085Z,1011.90
2019-02-08T09:16:15.045Z,1011.93
2019-02-08T09:17:15.011Z,1011.93
2019-02-08T09:18:15.001Z,1011.92
2019-02-08T09:19:14.953Z,1011.90
2019-02-08T09:20:14.912Z,1011.87
2019-02-08T09:21:14.880Z,1011.93
2019-02-08T09:22:14.845Z,1011.90
2019-02-08T09:23:16.117Z,1011.86
2019-02-08T09:24:14.781Z,1011.81
2019-02-08T09:25:14.746Z,1011.82
2019-02-08T09:26:14.813Z,1011.79
2019-02-08T09:27:14.684Z,1011.82
2019-02-08T09:28:14.683Z,1011.84
2019-02-08T09:29:14.615Z,1011.82
2019-02-08T09:30:14.605Z,1011.82
2019-02-08T09:31:14.553Z,1011.83
2019-02-08T09:32:14.513Z,1011.82
2019-02-08T09:33:15.058Z,1011.79
2019-02-08T09:34:14.471Z,1011.81
2019-02-08T09:35:14.414Z,1011.77
2019-02-08T09:36:14.466Z,1011.70
2019-02-08T09:37:15.015Z,1011.70
2019-02-08T09:38:14.336Z,1011.73
2019-02-08T09:39:14.308Z,1011.72
2019-02-08T09:40:14.252Z,1011.65
2019-02-08T09:41:14.239Z,1011.69
2019-02-08T09:42:14.189Z,1011.66
2019-02-08T09:43:14.206Z,1011.67
2019-02-08T09:44:14.168Z,1011.68
2019-02-08T09:45:14.772Z,1011.66
2019-02-08T09:46:14.067Z,1011.66
2019-02-08T09:47:14.054Z,1011.68
2019-02-08T09:48:14.062Z,1011.63
2019-02-08T09:49:14.015Z,1011.57
2019-02-08T09:50:14.012Z,1011.64
2019-02-08T09:51:13.888Z,1011.65
2019-02-08T09:52:13.870Z,1011.67
2019-02-08T09:53:13.836Z,1011.67
2019-02-08T09:54:13.813Z,1011.70
2019-02-08T09:55:13.804Z,1011.66
2019-02-08T09:56:13.747Z,1011.65
2019-02-08T09:57:13.708Z,1011.70
2019-02-08T09:58:13.661Z,1011.70
2019-02-08T09:59:13.627Z,1011.68
2019-02-08T10:00:13.626Z,1011.68
2019-02-08T10:01:13.559Z,1011.69
2019-02-08T10:02:13.532Z,1011.75
2019-02-08T10:03:13.503Z,1011.65
2019-02-08T10:04:13.469Z,1011.66
2019-02-08T10:05:13.479Z,1011.71
2019-02-08T10:06:13.400Z,1011.71
2019-02-08T10:07:13.368Z,1011.61
2019-02-08T10:08:13.336Z,1011.65
2019-02-08T10:09:13.319Z,1011.69
2019-02-08T10:10:13.272Z,1011.66
2019-02-08T10:11:13.711Z,1011.74
2019-02-08T10:12:13.207Z,1011.72
2019-02-08T10:13:13.202Z,1011.76
2019-02-08T10:14:13.150Z,1011.77
2019-02-08T10:15:13.109Z,1011.81
2019-02-08T10:16:13.107Z,1011.77
2019-02-08T10:17:13.054Z,1011.77
2019-02-08T10:18:13.027Z,1011.79
2019-02-08T10:19:12.994Z,1011.83
2019-02-08T10:20:12.958Z,1011.78
2019-02-08T10:21:12.965Z,1011.83
2019-02-08T10:22:13.023Z,1011.82
2019-02-08T10:23:12.879Z,1011.86
2019-02-08T10:24:12.857Z,1011.88
2019-02-08T10:25:12.802Z,1011.84
2019-02-08T10:26:12.771Z,1011.86
2019-02-08T10:27:12.769Z,1011.87
2019-02-08T10:28:12.714Z,1011.88
2019-02-08T10:29:12.762Z,1011.84
2019-02-08T10:30:12.657Z,1011.87
2019-02-08T10:31:12.620Z,1011.79
2019-02-08T10:32:12.611Z,1011.78
2019-02-08T10:33:12.565Z,1011.76
2019-02-08T10:34:12.527Z,1011.72
2019-02-08T10:35:12.498Z,1011.69
2019-02-08T10:36:12.468Z,1011.67
2019-02-08T10:37:12.504Z,1011.65
2019-02-08T10:38:12.412Z,1011.68
2019-02-08T10:39:12.376Z,1011.70
2019-02-08T10:40:12.347Z,1011.74
2019-02-08T10:41:12.319Z,1011.67
2019-02-08T10:42:12.286Z,1011.74
2019-02-08T10:43:13.157Z,1011.64
2019-02-08T10:44:12.233Z,1011.68
2019-02-08T10:45:12.197Z,1011.68
2019-02-08T10:46:12.168Z,1011.73
2019-02-08T10:47:12.139Z,1011.69
2019-02-08T10:48:12.131Z,1011.66
2019-02-08T10:49:12.075Z,1011.67
2019-02-08T10:50:12.051Z,1011.68
2019-02-08T10:51:14.624Z,1011.65
2019-02-08T10:52:11.987Z,1011.60
2019-02-08T10:53:14.528Z,1011.64
2019-02-08T10:54:11.937Z,1011.66
2019-02-08T10:55:11.898Z,1011.63
2019-02-08T10:56:15.126Z,1011.59
2019-02-08T10:57:11.836Z,1011.60
2019-02-08T10:58:11.831Z,1011.58
2019-02-08T10:59:11.779Z,1011.59
2019-02-08T11:00:11.748Z,1011.50
2019-02-08T11:01:11.722Z,1011.61
2019-02-08T11:02:12.622Z,1011.56
2019-02-08T11:03:11.661Z,1011.57
2019-02-08T11:04:11.656Z,1011.61
2019-02-08T11:05:11.604Z,1011.60
2019-02-08T11:06:12.124Z,1011.45
2019-02-08T11:07:11.540Z,1011.53
2019-02-08T11:08:11.515Z,1011.55
2019-02-08T11:09:11.511Z,1011.56
2019-02-08T11:10:12.128Z,1011.50
2019-02-08T11:11:11.429Z,1011.56
2019-02-08T11:12:11.396Z,1011.52
2019-02-08T11:13:11.365Z,1011.43
2019-02-08T11:14:11.364Z,1011.38
2019-02-08T11:15:11.309Z,1011.44
2019-02-08T11:16:11.278Z,1011.43
2019-02-08T11:17:11.252Z,1011.39
2019-02-08T11:18:11.222Z,1011.39
2019-02-08T11:19:11.187Z,1011.38
2019-02-08T11:20:11.188Z,1011.36
2019-02-08T11:21:11.131Z,1011.38
2019-02-08T11:22:11.102Z,1011.31
2019-02-08T11:23:11.072Z,1011.35
2019-02-08T11:24:11.050Z,1011.33
2019-02-08T11:25:11.036Z,1011.29
2019-02-08T11:26:10.986Z,1011.24
2019-02-08T11:27:10.957Z,1011.31
2019-02-08T11:28:10.937Z,1011.30
2019-02-08T11:29:10.897Z,1011.34
2019-02-08T11:30:10.906Z,1011.31
2019-02-08T11:31:10.839Z,1011.31
2019-02-08T11:32:10.807Z,1011.36
2019-02-08T11:33:10.784Z,1011.36
2019-02-08T11:34:12.555Z,1011.30
2019-02-08T11:35:10.752Z,1011.28
2019-02-08T11:36:10.693Z,1011.33
2019-02-08T11:37:11.629Z,1011.30
2019-02-08T11:38:10.657Z,1011.35
2019-02-08T11:39:10.604Z,1011.29
2019-02-08T11:40:10.605Z,1011.30
2019-02-08T11:41:10.541Z,1011.33
2019-02-08T11:42:10.520Z,1011.31
2019-02-08T11:43:10.492Z,1011.24
2019-02-08T11:44:10.559Z,1011.25
2019-02-08T11:45:10.454Z,1011.19
2019-02-08T11:46:10.401Z,1011.21
2019-02-08T11:47:10.370Z,1011.20
2019-02-08T11:48:11.131Z,1011.14
2019-02-08T11:49:10.336Z,1011.18
2019-02-08T11:50:10.311Z,1011.24
2019-02-08T11:51:10.254Z,1011.22
2019-02-08T11:52:10.225Z,1011.20
2019-02-08T11:53:10.200Z,1011.17
2019-02-08T11:54:10.180Z,1011.15
2019-02-08T11:55:10.161Z,1011.22
2019-02-08T11:56:10.115Z,1011.17
2019-02-08T11:57:10.629Z,1011.18
2019-02-08T11:58:10.056Z,1011.17
2019-02-08T11:59:10.033Z,1011.19
2019-02-08T12:00:10.017Z,1011.20
2019-02-08T12:01:09.964Z,1011.21
2019-02-08T12:02:09.938Z,1011.14
2019-02-08T12:03:09.927Z,1011.17
2019-02-08T12:04:09.880Z,1011.18
2019-02-08T12:05:09.886Z,1011.07
2019-02-08T12:06:09.825Z,1011.12